< Typhoon 198401 1984 Season Typhoon 198403 >
Typhoon 198402 (WYNNE)
General InformationDetailed Track InformationTrack Information on Google MapsList of All Images || Disaster Info.ResourceGoogle EarthGE AnimationAtom FeedGeoJSON
Detalied Best Track Wind (Time Zone = UTC)
Year Month Day Hour Lat. Long. Wind (kt) Gust (kt) Direc. of Major Storm Axis Radius of Major Storm Axis (nm) Radius of Minor Storm Axis (nm) Direc. of Major Gale Axis Radius of Major Gale Axis (nm) Radius of Minor Gale Axis (nm) Image
1984 6 18 06 21.0 135.0 0 0 - - - - - - Image
1984 6 18 12 21.1 134.5 0 0 - - - - - - Image
1984 6 18 18 21.2 134.0 0 0 - - - - - - Image
1984 6 19 00 21.3 133.4 0 0 - - - - - - Image
1984 6 19 06 21.4 132.8 0 0 - - - - - - Image
1984 6 19 12 21.4 132.1 0 0 - - - - - - Image
1984 6 19 18 21.7 131.6 35 0 - - - symmetric 60 60 Image
1984 6 20 00 22.1 131.1 35 0 - - - symmetric 60 60 Image
1984 6 20 06 22.3 130.5 35 0 - - - symmetric 60 60 Image
1984 6 20 12 22.5 129.8 35 0 - - - symmetric 60 60 Image
1984 6 20 18 22.6 129.2 35 0 - - - symmetric 60 60 Image
1984 6 21 00 22.6 128.4 40 0 - - - symmetric 60 60 Image
1984 6 21 06 22.5 128.1 40 0 - - - symmetric 60 60 Image
1984 6 21 12 22.3 127.8 50 0 - - - NE 80 50 Image
1984 6 21 18 22.3 127.3 50 0 - - - symmetric 100 100 Image
1984 6 22 00 22.3 126.9 50 0 - - - symmetric 100 100 Image
1984 6 22 06 22.3 126.5 50 0 - - - symmetric 100 100 Image
1984 6 22 12 22.3 125.8 50 0 - - - symmetric 100 100 Image
1984 6 22 18 22.2 125.0 50 0 - - - symmetric 100 100 Image
1984 6 23 00 22.2 124.1 50 0 - - - symmetric 100 100 Image
1984 6 23 06 22.0 123.3 55 0 symmetric 30 30 symmetric 125 125 Image
1984 6 23 12 22.0 122.1 55 0 symmetric 30 30 symmetric 125 125 Image
1984 6 23 18 21.8 120.6 55 0 symmetric 30 30 symmetric 125 125 Image
1984 6 24 00 21.4 119.0 55 0 symmetric 30 30 symmetric 125 125 Image
1984 6 24 06 21.3 117.2 55 0 symmetric 30 30 symmetric 125 125 Image
1984 6 24 12 21.1 115.4 55 0 symmetric 30 30 symmetric 125 125 Image
1984 6 24 18 21.0 114.5 50 0 - - - symmetric 125 125 Image
1984 6 25 00 21.1 113.5 50 0 - - - symmetric 125 125 Image
1984 6 25 06 21.4 112.3 50 0 - - - symmetric 125 125 Image
1984 6 25 12 21.2 110.8 45 0 - - - symmetric 75 75 Image
1984 6 25 18 21.3 109.3 45 0 - - - symmetric 75 75 Image
1984 6 26 00 21.5 107.5 0 0 - - - - - - Image
1984 6 26 06 21.5 105.5 0 0 - - - - - - Image
1984 6 26 12 21.5 104.0 0 0 - - - - - - Image
1984 6 26 18 21.0 102.0 0 0 - - - - - - Image
1984 6 27 00 21.0 100.0 0 0 - - - - - - Image
1984 6 27 06 21.0 98.5 0 0 - - - - - - Image
Japan Meteorological Agency Best Track Data | Correction Date : 1992-10-21
< Typhoon 198401 1984 Season Typhoon 198403 >

Help